createdAt,value
2023-04-15T00:00:29.963Z,9.74
2023-04-15T00:03:15.849Z,9.70
2023-04-15T00:05:44.197Z,9.69
2023-04-15T00:08:13.879Z,9.50
2023-04-15T00:10:44.142Z,9.38
2023-04-15T00:13:12.514Z,9.32
2023-04-15T00:15:40.485Z,9.27
2023-04-15T00:18:09.068Z,9.27
2023-04-15T00:20:38.334Z,9.29
2023-04-15T00:23:06.557Z,9.29
2023-04-15T00:25:35.871Z,9.26
2023-04-15T00:28:04.200Z,9.29
2023-04-15T00:30:32.372Z,9.27
2023-04-15T00:33:02.218Z,9.39
2023-04-15T00:35:32.545Z,9.35
2023-04-15T00:38:00.869Z,9.41
2023-04-15T00:40:28.927Z,9.51
2023-04-15T00:42:58.510Z,9.46
2023-04-15T00:45:27.383Z,9.35
2023-04-15T00:47:56.892Z,9.39
2023-04-15T00:50:25.194Z,9.31
2023-04-15T00:52:53.437Z,9.18
2023-04-15T00:55:21.696Z,9.04
2023-04-15T00:57:49.996Z,8.92
2023-04-15T01:00:20.155Z,8.82
2023-04-15T01:02:48.613Z,8.78
2023-04-15T01:05:19.404Z,8.73
2023-04-15T01:07:48.152Z,8.74
2023-04-15T01:10:16.282Z,8.66
2023-04-15T01:12:44.933Z,8.60
2023-04-15T01:15:13.064Z,8.61
2023-04-15T01:17:43.391Z,8.63
2023-04-15T01:20:12.204Z,8.66
2023-04-15T01:22:40.908Z,8.52
2023-04-15T01:25:13.053Z,8.30
2023-04-15T01:27:43.300Z,8.37
2023-04-15T01:30:12.090Z,8.42
2023-04-15T01:32:40.450Z,8.45
2023-04-15T01:35:27.159Z,8.48
2023-04-15T01:37:55.752Z,8.48
2023-04-15T01:40:23.757Z,8.62
2023-04-15T01:42:53.750Z,8.72
2023-04-15T01:45:21.813Z,8.74
2023-04-15T01:47:50.407Z,8.53
2023-04-15T01:50:18.928Z,8.35
2023-04-15T01:52:47.540Z,8.23
2023-04-15T01:55:16.020Z,8.23
2023-04-15T01:57:44.374Z,8.25
2023-04-15T02:00:14.673Z,8.14
2023-04-15T02:02:43.816Z,8.07
2023-04-15T02:05:11.963Z,8.13
2023-04-15T02:07:40.240Z,8.06
2023-04-15T02:10:10.166Z,8.05
2023-04-15T02:12:38.475Z,7.90
2023-04-15T02:15:08.914Z,7.82
2023-04-15T02:17:38.690Z,7.72
2023-04-15T02:20:08.551Z,7.73
2023-04-15T02:22:36.906Z,7.83
2023-04-15T02:25:05.539Z,7.93
2023-04-15T02:27:33.951Z,7.94
2023-04-15T02:30:02.031Z,8.02
2023-04-15T02:32:30.556Z,8.10
2023-04-15T02:35:03.678Z,8.01
2023-04-15T02:37:32.887Z,7.99
2023-04-15T02:40:01.438Z,8.09
2023-04-15T02:42:30.355Z,8.05
2023-04-15T02:45:01.490Z,8.02
2023-04-15T02:47:34.074Z,8.00
2023-04-15T02:50:04.046Z,7.91
2023-04-15T02:52:33.148Z,7.90
2023-04-15T02:55:02.551Z,7.84
2023-04-15T02:57:31.619Z,7.73
2023-04-15T03:00:09.479Z,7.64
2023-04-15T03:02:40.204Z,7.49
2023-04-15T03:05:13.033Z,7.44
2023-04-15T03:07:44.578Z,7.40
2023-04-15T03:10:13.129Z,7.36
2023-04-15T03:12:41.677Z,7.36
2023-04-15T03:15:12.954Z,7.32
2023-04-15T03:17:46.234Z,7.41
2023-04-15T03:20:15.928Z,7.36
2023-04-15T03:22:44.290Z,7.31
2023-04-15T03:25:12.602Z,7.34
2023-04-15T03:27:40.938Z,7.31
2023-04-15T03:30:10.632Z,7.26
2023-04-15T03:32:40.217Z,7.45
2023-04-15T03:35:09.822Z,7.34
2023-04-15T03:37:39.465Z,7.39
2023-04-15T03:40:09.725Z,7.36
2023-04-15T03:42:38.050Z,7.41
2023-04-15T03:45:07.544Z,7.28
2023-04-15T03:47:35.921Z,7.54
2023-04-15T03:50:04.320Z,7.38
2023-04-15T03:52:32.550Z,7.34
2023-04-15T03:55:02.249Z,7.19
2023-04-15T03:57:30.591Z,7.07
2023-04-15T03:59:59.622Z,6.95
2023-04-15T04:02:28.322Z,6.93
2023-04-15T04:04:56.536Z,6.92
2023-04-15T04:07:25.419Z,6.87
2023-04-15T04:09:53.555Z,6.92
2023-04-15T04:12:23.216Z,6.95
2023-04-15T04:14:51.362Z,7.00
2023-04-15T04:17:19.630Z,6.95
2023-04-15T04:19:47.634Z,7.01
2023-04-15T04:22:15.855Z,7.18
2023-04-15T04:24:43.875Z,7.36
2023-04-15T04:27:12.125Z,7.33
2023-04-15T04:29:41.449Z,7.10
2023-04-15T04:32:09.977Z,6.95
2023-04-15T04:34:38.205Z,6.98
2023-04-15T04:37:06.889Z,6.70
2023-04-15T04:39:34.881Z,6.62
2023-04-15T04:42:03.118Z,6.63
2023-04-15T04:44:31.195Z,6.53
2023-04-15T04:47:00.819Z,6.40
2023-04-15T04:49:28.864Z,6.34
2023-04-15T04:51:57.309Z,6.37
2023-04-15T04:54:25.401Z,6.46
2023-04-15T04:56:53.727Z,6.70
2023-04-15T04:59:21.680Z,6.57
2023-04-15T05:01:49.896Z,6.58
2023-04-15T05:04:19.565Z,6.50
2023-04-15T05:06:47.847Z,6.29
2023-04-15T05:09:16.002Z,6.20
2023-04-15T05:11:44.267Z,6.30
2023-04-15T05:14:12.258Z,6.34
2023-04-15T05:16:40.574Z,6.36
2023-04-15T05:19:08.705Z,6.39
2023-04-15T05:21:39.530Z,6.44
2023-04-15T05:24:07.911Z,6.59
2023-04-15T05:26:36.198Z,6.50
2023-04-15T05:29:04.351Z,6.60
2023-04-15T05:31:32.866Z,6.60
2023-04-15T05:34:01.425Z,6.61
2023-04-15T05:36:29.715Z,6.44
2023-04-15T05:38:59.468Z,6.42
2023-04-15T05:41:27.936Z,6.35
2023-04-15T05:43:56.158Z,6.40
2023-04-15T05:46:24.511Z,6.45
2023-04-15T05:48:53.807Z,6.49
2023-04-15T05:51:23.068Z,6.60
2023-04-15T05:53:51.231Z,6.53
2023-04-15T05:56:21.307Z,6.52
2023-04-15T05:58:50.129Z,6.56
2023-04-15T06:01:19.253Z,6.64
2023-04-15T06:03:47.478Z,6.77
2023-04-15T06:06:16.414Z,6.93
2023-04-15T06:08:44.394Z,6.97
2023-04-15T06:11:12.685Z,6.99
2023-04-15T06:13:42.070Z,7.14
2023-04-15T06:16:10.334Z,7.41
2023-04-15T06:18:38.372Z,7.35
2023-04-15T06:21:07.010Z,7.36
2023-04-15T06:23:36.177Z,7.55
2023-04-15T06:26:04.684Z,7.64
2023-04-15T06:28:32.740Z,7.63
2023-04-15T06:31:02.463Z,7.70
2023-04-15T06:33:30.580Z,7.79
2023-04-15T06:35:58.768Z,7.87
2023-04-15T06:38:26.773Z,8.05
2023-04-15T06:40:54.982Z,8.21
2023-04-15T06:43:23.026Z,8.20
2023-04-15T06:45:51.628Z,8.22
2023-04-15T06:48:21.044Z,8.25
2023-04-15T06:50:50.093Z,8.29
2023-04-15T06:53:18.032Z,8.31
2023-04-15T06:55:46.296Z,8.43
2023-04-15T06:58:14.351Z,8.47
2023-04-15T07:00:42.954Z,8.55
2023-04-15T07:03:12.752Z,8.73
2023-04-15T07:05:42.485Z,8.80
2023-04-15T07:08:10.528Z,8.90
2023-04-15T07:10:39.112Z,8.78
2023-04-15T07:13:08.681Z,8.84
2023-04-15T07:15:36.952Z,8.84
2023-04-15T07:18:04.976Z,9.03
2023-04-15T07:20:33.292Z,9.09
2023-04-15T07:23:02.725Z,9.03
2023-04-15T07:25:30.975Z,9.11
2023-04-15T07:27:58.997Z,9.22
2023-04-15T07:30:27.200Z,9.69
2023-04-15T07:32:55.340Z,9.67
2023-04-15T07:35:23.658Z,9.79
2023-04-15T07:37:52.111Z,10.03
2023-04-15T07:40:22.342Z,10.05
2023-04-15T07:42:50.425Z,10.14
2023-04-15T07:45:18.762Z,10.13
2023-04-15T07:47:46.857Z,10.05
2023-04-15T07:50:16.113Z,10.20
2023-04-15T07:52:44.202Z,10.28
2023-04-15T07:55:12.515Z,10.18
2023-04-15T07:57:41.896Z,10.41
2023-04-15T08:00:11.350Z,10.52
2023-04-15T08:02:42.637Z,10.67
2023-04-15T08:05:11.647Z,10.73
2023-04-15T08:07:40.640Z,10.87
2023-04-15T08:10:09.532Z,10.99
2023-04-15T08:12:37.762Z,11.05
2023-04-15T08:15:09.130Z,11.18
2023-04-15T08:17:37.341Z,11.26
2023-04-15T08:20:06.749Z,11.35
2023-04-15T08:22:35.489Z,11.25
2023-04-15T08:25:03.834Z,11.30
2023-04-15T08:27:32.017Z,11.28
2023-04-15T08:30:02.141Z,11.32
2023-04-15T08:32:33.036Z,11.51
2023-04-15T08:35:01.726Z,11.62
2023-04-15T08:37:29.707Z,11.71
2023-04-15T08:39:57.906Z,11.73
2023-04-15T08:42:32.315Z,11.71
2023-04-15T08:45:01.569Z,11.62
2023-04-15T08:47:31.974Z,11.77
2023-04-15T08:50:05.046Z,11.84
2023-04-15T08:52:33.182Z,11.95
2023-04-15T08:55:01.689Z,11.92
2023-04-15T08:57:30.499Z,12.06
2023-04-15T08:59:58.779Z,12.30
2023-04-15T09:02:28.074Z,12.55
2023-04-15T09:04:56.721Z,12.56
2023-04-15T09:07:26.126Z,12.62
2023-04-15T09:09:54.343Z,12.71
2023-04-15T09:12:22.819Z,12.78
2023-04-15T09:14:51.136Z,12.91
2023-04-15T09:17:20.514Z,12.89
2023-04-15T09:19:48.940Z,13.13
2023-04-15T09:22:17.254Z,13.31
2023-04-15T09:24:47.472Z,13.37
2023-04-15T09:27:17.606Z,13.49
2023-04-15T09:29:45.934Z,13.48
2023-04-15T09:32:15.103Z,13.52
2023-04-15T09:34:43.603Z,13.63
2023-04-15T09:37:20.690Z,13.72
2023-04-15T09:40:01.018Z,13.76
2023-04-15T09:42:29.150Z,13.82
2023-04-15T09:44:57.464Z,13.86
2023-04-15T09:47:29.546Z,13.94
2023-04-15T09:49:58.411Z,14.03
2023-04-15T09:52:27.255Z,14.06
2023-04-15T09:54:56.979Z,14.07
2023-04-15T09:57:26.677Z,14.14
2023-04-15T09:59:54.911Z,14.36
2023-04-15T10:02:23.303Z,14.40
2023-04-15T10:04:53.674Z,14.50
2023-04-15T10:07:22.622Z,14.57
2023-04-15T10:09:50.981Z,14.71
2023-04-15T10:12:19.128Z,14.81
2023-04-15T10:14:53.150Z,14.69
2023-04-15T10:17:23.622Z,14.73
2023-04-15T10:19:55.006Z,14.76
2023-04-15T10:22:23.864Z,14.81
2023-04-15T10:24:52.505Z,14.96
2023-04-15T10:27:22.055Z,14.98
2023-04-15T10:29:52.415Z,14.98
2023-04-15T10:32:26.431Z,15.04
2023-04-15T10:34:55.653Z,15.19
2023-04-15T10:37:33.953Z,15.29
2023-04-15T10:40:02.742Z,15.55
2023-04-15T10:42:35.612Z,15.77
2023-04-15T10:45:17.409Z,15.75
2023-04-15T10:47:45.520Z,15.76
2023-04-15T10:50:13.917Z,15.71
2023-04-15T10:52:42.643Z,15.70
2023-04-15T10:55:15.751Z,15.56
2023-04-15T10:57:44.847Z,15.61
2023-04-15T11:00:16.734Z,15.60
2023-04-15T11:02:47.578Z,15.50
2023-04-15T11:05:16.714Z,15.49
2023-04-15T11:07:53.588Z,15.27
2023-04-15T11:10:52.953Z,15.16
2023-04-15T11:13:23.491Z,15.21
2023-04-15T11:15:58.283Z,15.11
2023-04-15T11:18:28.361Z,15.15
2023-04-15T11:20:59.201Z,15.12
2023-04-15T11:23:32.434Z,14.87
2023-04-15T11:26:01.662Z,14.90
2023-04-15T11:28:30.866Z,14.85
2023-04-15T11:31:07.298Z,14.73
2023-04-15T11:33:35.454Z,14.72
2023-04-15T11:36:04.474Z,14.77
2023-04-15T11:38:32.528Z,14.85
2023-04-15T11:41:03.286Z,14.87
2023-04-15T11:43:35.366Z,14.80
2023-04-15T11:46:05.447Z,14.87
2023-04-15T11:48:34.825Z,14.87
2023-04-15T11:51:04.082Z,14.88
2023-04-15T11:53:40.842Z,14.79
2023-04-15T11:56:09.896Z,14.80
2023-04-15T11:58:39.161Z,14.92
2023-04-15T12:01:08.801Z,15.02
2023-04-15T12:03:41.291Z,15.19
2023-04-15T12:06:12.934Z,15.29
2023-04-15T12:09:05.030Z,15.44
2023-04-15T12:11:36.186Z,15.50
2023-04-15T12:14:07.318Z,15.63
2023-04-15T12:16:48.891Z,15.64
2023-04-15T12:19:20.288Z,15.69
2023-04-15T12:21:49.504Z,15.67
2023-04-15T12:24:21.921Z,15.55
2023-04-15T12:26:51.706Z,15.36
2023-04-15T12:29:20.405Z,15.48
2023-04-15T12:31:51.706Z,15.47
2023-04-15T12:34:27.694Z,15.40
2023-04-15T12:36:55.970Z,15.35
2023-04-15T12:39:25.167Z,15.20
2023-04-15T12:41:53.464Z,15.17
2023-04-15T12:44:24.144Z,15.12
2023-04-15T12:46:54.387Z,15.02
2023-04-15T12:49:23.110Z,14.82
2023-04-15T12:51:51.773Z,14.82
2023-04-15T12:54:20.447Z,14.69
2023-04-15T12:56:49.742Z,14.61
2023-04-15T12:59:18.749Z,14.57
2023-04-15T13:01:47.352Z,14.70
2023-04-15T13:04:17.621Z,14.77
2023-04-15T13:06:45.970Z,14.70
2023-04-15T13:09:14.319Z,14.78
2023-04-15T13:11:42.565Z,14.74
2023-04-15T13:14:12.963Z,14.70
2023-04-15T13:16:41.329Z,14.59
2023-04-15T13:19:09.716Z,14.62
2023-04-15T13:21:39.166Z,14.46
2023-04-15T13:24:08.135Z,14.46
2023-04-15T13:26:36.475Z,14.35
2023-04-15T13:29:06.783Z,14.25
2023-04-15T13:31:34.876Z,14.31
2023-04-15T13:34:03.477Z,14.41
2023-04-15T13:36:31.853Z,14.51
2023-04-15T13:39:01.604Z,14.57
2023-04-15T13:41:30.039Z,14.51
2023-04-15T13:43:58.433Z,14.54
2023-04-15T13:46:26.803Z,14.60
2023-04-15T13:48:55.049Z,14.64
2023-04-15T13:51:23.007Z,14.68
2023-04-15T13:53:51.307Z,14.72
2023-04-15T13:56:21.487Z,14.69
2023-04-15T13:58:49.792Z,14.72
2023-04-15T14:01:17.871Z,14.76
2023-04-15T14:03:46.317Z,14.84
2023-04-15T14:06:14.436Z,14.81
2023-04-15T14:08:42.729Z,14.89
2023-04-15T14:11:11.079Z,14.95
2023-04-15T14:13:40.730Z,15.02
2023-04-15T14:16:08.976Z,15.08
2023-04-15T14:18:38.417Z,15.14
2023-04-15T14:21:07.222Z,15.09
2023-04-15T14:23:35.585Z,15.07
2023-04-15T14:26:03.611Z,15.08
2023-04-15T14:28:32.673Z,14.94
2023-04-15T14:31:02.210Z,14.90
2023-04-15T14:33:30.490Z,14.85
2023-04-15T14:35:58.532Z,14.69
2023-04-15T14:38:26.760Z,14.62
2023-04-15T14:40:54.738Z,14.46
2023-04-15T14:43:23.122Z,14.46
2023-04-15T14:45:51.861Z,14.29
2023-04-15T14:48:21.438Z,14.09
2023-04-15T14:50:49.464Z,13.98
2023-04-15T14:53:17.760Z,13.96
2023-04-15T14:55:45.975Z,13.57
2023-04-15T14:58:14.258Z,13.64
2023-04-15T15:00:44.366Z,13.62
2023-04-15T15:03:13.561Z,13.57
2023-04-15T15:05:44.103Z,13.58
2023-04-15T15:08:13.186Z,13.26
2023-04-15T15:10:49.764Z,13.20
2023-04-15T15:13:19.304Z,12.89
2023-04-15T15:15:49.249Z,12.82
2023-04-15T15:18:18.812Z,12.80
2023-04-15T15:20:49.342Z,12.61
2023-04-15T15:23:17.658Z,12.50
2023-04-15T15:25:47.152Z,12.45
2023-04-15T15:28:15.528Z,12.56
2023-04-15T15:30:43.512Z,12.58
2023-04-15T15:33:11.814Z,12.64
2023-04-15T15:35:40.896Z,12.58
2023-04-15T15:38:12.353Z,12.45
2023-04-15T15:40:40.574Z,12.28
2023-04-15T15:43:08.848Z,12.29
2023-04-15T15:45:36.982Z,12.35
2023-04-15T15:48:06.232Z,12.36
2023-04-15T15:50:34.865Z,12.28
2023-04-15T15:53:03.114Z,12.33
2023-04-15T15:55:32.450Z,12.17
2023-04-15T15:58:00.679Z,12.20
2023-04-15T16:00:28.749Z,12.15
2023-04-15T16:05:29.013Z,11.90
2023-04-15T16:07:57.260Z,11.87
2023-04-15T16:10:25.280Z,11.68
2023-04-15T16:12:55.374Z,11.70
2023-04-15T16:15:23.707Z,11.56
2023-04-15T16:17:52.170Z,11.58
2023-04-15T16:20:20.221Z,11.53
2023-04-15T16:22:48.626Z,11.47
2023-04-15T16:25:16.590Z,11.44
2023-04-15T16:27:58.934Z,11.49
2023-04-15T16:30:30.742Z,11.47
2023-04-15T16:32:59.131Z,11.45
2023-04-15T16:35:27.117Z,11.44
2023-04-15T16:37:55.444Z,11.45
2023-04-15T16:40:23.456Z,11.35
2023-04-15T16:42:51.776Z,11.38
2023-04-15T16:45:19.913Z,11.35
2023-04-15T16:47:49.679Z,11.39
2023-04-15T16:50:18.016Z,11.30
2023-04-15T16:52:46.259Z,11.24
2023-04-15T16:55:14.295Z,11.16
2023-04-15T16:58:02.402Z,11.09
2023-04-15T17:00:30.984Z,11.02
2023-04-15T17:03:01.271Z,10.95
2023-04-15T17:05:30.419Z,10.87
2023-04-15T17:07:58.675Z,10.76
2023-04-15T17:10:26.690Z,10.78
2023-04-15T17:12:56.920Z,10.68
2023-04-15T17:15:25.387Z,10.67
2023-04-15T17:18:05.549Z,10.69
2023-04-15T17:20:36.116Z,10.70
2023-04-15T17:23:04.859Z,10.72
2023-04-15T17:25:32.902Z,10.69
2023-04-15T17:28:02.282Z,10.70
2023-04-15T17:30:31.529Z,10.69
2023-04-15T17:33:55.889Z,10.63
2023-04-15T17:36:29.638Z,10.62
2023-04-15T17:39:17.998Z,10.68
2023-04-15T17:42:05.948Z,10.70
2023-04-15T17:44:54.148Z,10.62
2023-04-15T17:47:42.458Z,10.49
2023-04-15T17:50:32.026Z,10.64
2023-04-15T17:53:19.910Z,10.59
2023-04-15T17:56:08.132Z,10.58
2023-04-15T17:58:56.087Z,10.52
2023-04-15T18:01:45.383Z,10.47
2023-04-15T18:04:33.683Z,10.43
2023-04-15T18:07:23.360Z,10.32
2023-04-15T18:10:11.552Z,10.25
2023-04-15T18:12:59.840Z,10.27
2023-04-15T18:15:48.563Z,10.22
2023-04-15T18:18:36.892Z,10.29
2023-04-15T18:21:05.453Z,10.25
2023-04-15T18:23:35.151Z,10.24
2023-04-15T18:26:03.366Z,10.24
2023-04-15T18:28:31.795Z,10.23
2023-04-15T18:30:59.803Z,10.26
2023-04-15T18:33:28.085Z,10.20
2023-04-15T18:35:57.298Z,10.23
2023-04-15T18:38:25.681Z,10.13
2023-04-15T18:40:55.199Z,10.13
2023-04-15T18:43:23.548Z,10.09
2023-04-15T18:45:52.362Z,10.04
2023-04-15T18:48:20.779Z,10.03
2023-04-15T18:50:49.096Z,9.92
2023-04-15T18:53:17.281Z,9.86
2023-04-15T18:55:45.338Z,9.95
2023-04-15T18:58:14.976Z,9.90
2023-04-15T19:00:43.869Z,9.93
2023-04-15T19:03:12.341Z,9.90
2023-04-15T19:05:40.777Z,9.88
2023-04-15T19:08:09.138Z,9.86
2023-04-15T19:10:37.294Z,9.87
2023-04-15T19:13:05.645Z,9.85
2023-04-15T19:15:35.078Z,9.85
2023-04-15T19:18:05.273Z,9.82
2023-04-15T19:20:37.135Z,9.83
2023-04-15T19:23:06.956Z,9.77
2023-04-15T19:25:35.089Z,9.87
2023-04-15T19:28:03.384Z,9.86
2023-04-15T19:30:33.158Z,9.82
2023-04-15T19:33:03.819Z,9.77
2023-04-15T19:35:31.877Z,9.79
2023-04-15T19:38:00.328Z,9.81
2023-04-15T19:40:28.407Z,9.84
2023-04-15T19:42:56.773Z,9.84
2023-04-15T19:45:24.800Z,9.81
2023-04-15T19:47:52.911Z,9.79
2023-04-15T19:50:26.232Z,9.75
2023-04-15T19:52:54.551Z,9.79
2023-04-15T19:55:23.461Z,9.83
2023-04-15T19:57:51.589Z,9.80
2023-04-15T20:00:19.970Z,9.79
2023-04-15T20:02:48.457Z,9.83
2023-04-15T20:05:17.158Z,9.80
2023-04-15T20:07:49.052Z,9.86
2023-04-15T20:10:17.851Z,9.89
2023-04-15T20:12:51.019Z,9.90
2023-04-15T20:15:22.743Z,9.91
2023-04-15T20:17:51.311Z,9.88
2023-04-15T20:20:20.839Z,9.88
2023-04-15T20:22:50.701Z,9.86
2023-04-15T20:25:18.914Z,9.85
2023-04-15T20:27:47.176Z,9.87
2023-04-15T20:30:15.717Z,9.83
2023-04-15T20:32:44.189Z,9.87
2023-04-15T20:35:12.495Z,9.85
2023-04-15T20:37:40.649Z,9.86
2023-04-15T20:40:12.442Z,9.87
2023-04-15T20:42:42.941Z,9.82
2023-04-15T20:45:11.795Z,9.82
2023-04-15T20:47:40.171Z,9.86
2023-04-15T20:50:10.005Z,9.83
2023-04-15T20:52:37.999Z,9.85
2023-04-15T20:55:08.045Z,9.84
2023-04-15T20:57:37.668Z,9.85
2023-04-15T21:00:09.268Z,9.82
2023-04-15T21:02:37.665Z,9.78
2023-04-15T21:05:06.984Z,9.84
2023-04-15T21:07:35.204Z,9.89
2023-04-15T21:10:04.120Z,9.82
2023-04-15T21:12:32.859Z,9.91
2023-04-15T21:15:02.887Z,9.89
2023-04-15T21:17:30.906Z,9.98
2023-04-15T21:19:59.198Z,9.95
2023-04-15T21:22:27.418Z,9.95
2023-04-15T21:24:55.709Z,9.91
2023-04-15T21:27:25.598Z,9.87
2023-04-15T21:29:54.028Z,9.95
2023-04-15T21:32:23.443Z,9.97
2023-04-15T21:34:51.918Z,9.95
2023-04-15T21:37:19.960Z,9.98
2023-04-15T21:39:48.179Z,10.02
2023-04-15T21:42:16.482Z,9.95
2023-04-15T21:44:44.778Z,10.02
2023-04-15T21:47:12.857Z,10.01
2023-04-15T21:49:42.551Z,9.92
2023-04-15T21:52:11.049Z,9.98
2023-04-15T21:54:39.363Z,10.03
2023-04-15T21:57:07.399Z,10.03
2023-04-15T21:59:35.671Z,10.04
2023-04-15T22:02:03.915Z,10.10
2023-04-15T22:04:32.275Z,10.09
2023-04-15T22:07:02.262Z,10.09
2023-04-15T22:09:30.843Z,10.10
2023-04-15T22:11:59.575Z,10.06
2023-04-15T22:14:28.315Z,10.16
2023-04-15T22:16:56.718Z,10.11
2023-04-15T22:19:25.834Z,10.07
2023-04-15T22:21:53.935Z,10.07
2023-04-15T22:24:34.352Z,10.01
2023-04-15T22:27:08.178Z,10.10
2023-04-15T22:29:36.553Z,10.12
2023-04-15T22:32:04.567Z,10.03
2023-04-15T22:34:32.848Z,10.10
2023-04-15T22:37:01.024Z,10.10
2023-04-15T22:39:30.678Z,10.12
2023-04-15T22:41:58.648Z,10.34
2023-04-15T22:44:26.925Z,10.38
2023-04-15T22:46:55.946Z,10.38
2023-04-15T22:49:24.152Z,10.23
2023-04-15T22:51:52.293Z,10.39
2023-04-15T22:54:20.704Z,10.35
2023-04-15T22:56:50.100Z,10.42
2023-04-15T22:59:18.371Z,10.35
2023-04-15T23:01:46.363Z,10.36
2023-04-15T23:04:25.868Z,10.33
2023-04-15T23:06:55.752Z,10.33
2023-04-15T23:09:24.263Z,10.39
2023-04-15T23:11:53.767Z,10.35
2023-04-15T23:14:21.952Z,10.30
2023-04-15T23:16:49.978Z,10.25
2023-04-15T23:19:18.231Z,10.26
2023-04-15T23:21:46.399Z,10.20
2023-04-15T23:24:14.688Z,10.20
2023-04-15T23:26:42.737Z,10.19
2023-04-15T23:29:12.392Z,10.14
2023-04-15T23:31:41.461Z,10.13
2023-04-15T23:34:09.901Z,10.14
2023-04-15T23:36:38.091Z,10.11
2023-04-15T23:39:06.320Z,10.11
2023-04-15T23:41:34.320Z,10.12
2023-04-15T23:44:02.905Z,10.04
2023-04-15T23:46:32.328Z,10.04
2023-04-15T23:49:00.674Z,9.97
2023-04-15T23:51:28.866Z,9.94
2023-04-15T23:53:57.082Z,9.92
2023-04-15T23:56:25.090Z,9.92
2023-04-15T23:58:53.311Z,9.89
